createdAt,value
2022-10-05T00:00:00.191Z,8.68
2022-10-05T00:01:17.387Z,8.57
2022-10-05T00:02:22.697Z,11.38
2022-10-05T00:03:33.650Z,10.13
2022-10-05T00:04:35.675Z,11.18
2022-10-05T00:05:37.494Z,11.82
2022-10-05T00:06:39.722Z,10.20
2022-10-05T00:07:41.480Z,10.20
2022-10-05T00:08:43.600Z,9.88
2022-10-05T00:09:52.151Z,10.27
2022-10-05T00:10:56.140Z,8.35
2022-10-05T00:11:58.000Z,10.68
2022-10-05T00:12:59.831Z,9.05
2022-10-05T00:14:10.493Z,10.40
2022-10-05T00:15:14.852Z,11.45
2022-10-05T00:16:21.907Z,12.00
2022-10-05T00:17:26.882Z,10.60
2022-10-05T00:18:28.665Z,9.40
2022-10-05T00:19:36.582Z,8.95
2022-10-05T00:20:40.164Z,7.88
2022-10-05T00:21:41.868Z,9.00
2022-10-05T00:22:43.873Z,8.13
2022-10-05T00:23:45.703Z,10.95
2022-10-05T00:24:50.115Z,10.65
2022-10-05T00:25:51.865Z,10.00
2022-10-05T00:26:57.788Z,8.90
2022-10-05T00:28:01.533Z,10.00
2022-10-05T00:29:13.742Z,6.85
2022-10-05T00:30:15.803Z,9.02
2022-10-05T00:31:26.310Z,8.43
2022-10-05T00:32:28.260Z,10.40
2022-10-05T00:33:30.284Z,8.82
2022-10-05T00:34:34.294Z,10.77
2022-10-05T00:35:36.943Z,9.48
2022-10-05T00:36:40.290Z,7.90
2022-10-05T00:37:42.514Z,8.57
2022-10-05T00:38:44.958Z,9.00
2022-10-05T00:39:49.783Z,11.27
2022-10-05T00:41:30.693Z,9.10
2022-10-05T00:42:44.710Z,8.10
2022-10-05T00:44:13.198Z,8.00
2022-10-05T00:45:34.208Z,10.40
2022-10-05T00:46:57.943Z,10.43
2022-10-05T00:48:32.814Z,8.68
2022-10-05T00:49:47.674Z,8.60
2022-10-05T00:50:57.188Z,9.50
2022-10-05T00:52:24.469Z,9.13
2022-10-05T00:53:42.719Z,11.70
2022-10-05T00:54:54.324Z,14.75
2022-10-05T00:56:20.910Z,10.88
2022-10-05T00:57:39.670Z,9.48
2022-10-05T00:59:24.097Z,9.57
2022-10-05T01:00:27.860Z,8.95
2022-10-05T01:01:41.268Z,11.93
2022-10-05T01:03:19.224Z,8.68
2022-10-05T01:04:41.488Z,9.10
2022-10-05T01:06:11.115Z,11.48
2022-10-05T01:07:19.090Z,11.57
2022-10-05T01:08:31.791Z,10.35
2022-10-05T01:09:40.998Z,8.32
2022-10-05T01:10:57.161Z,8.82
2022-10-05T01:12:09.843Z,12.05
2022-10-05T01:13:27.840Z,8.63
2022-10-05T01:15:05.625Z,9.10
2022-10-05T01:16:41.918Z,13.82
2022-10-05T01:17:52.698Z,7.63
2022-10-05T01:19:39.567Z,9.57
2022-10-05T01:20:50.919Z,8.98
2022-10-05T01:22:07.958Z,9.65
2022-10-05T01:23:34.248Z,9.55
2022-10-05T01:24:57.581Z,11.30
2022-10-05T01:26:38.700Z,12.60
2022-10-05T01:27:48.540Z,9.18
2022-10-05T01:29:10.965Z,11.57
2022-10-05T01:30:17.221Z,9.40
2022-10-05T01:31:36.386Z,8.95
2022-10-05T01:32:44.039Z,10.48
2022-10-05T01:33:58.344Z,12.38
2022-10-05T01:35:05.146Z,10.27
2022-10-05T01:36:15.479Z,7.82
2022-10-05T01:37:20.211Z,9.20
2022-10-05T01:38:46.703Z,10.30
2022-10-05T01:39:56.997Z,10.27
2022-10-05T01:41:08.881Z,7.45
2022-10-05T01:42:30.602Z,9.85
2022-10-05T01:44:04.151Z,9.80
2022-10-05T01:45:28.391Z,10.70
2022-10-05T01:46:38.085Z,8.35
2022-10-05T01:47:55.470Z,14.32
2022-10-05T01:49:35.161Z,9.05
2022-10-05T01:50:58.721Z,8.23
2022-10-05T01:52:31.213Z,9.82
2022-10-05T01:53:58.858Z,7.38
2022-10-05T01:55:03.687Z,9.55
2022-10-05T01:56:30.712Z,9.40
2022-10-05T01:58:01.384Z,9.10
2022-10-05T01:59:27.078Z,9.35
2022-10-05T02:00:32.890Z,9.60
2022-10-05T02:01:49.997Z,8.88
2022-10-05T02:03:11.038Z,9.43
2022-10-05T02:05:00.536Z,9.10
2022-10-05T02:06:01.930Z,10.38
2022-10-05T02:07:14.804Z,9.20
2022-10-05T02:08:59.083Z,9.90
2022-10-05T02:10:21.384Z,8.00
2022-10-05T02:11:23.123Z,9.63
2022-10-05T02:12:29.418Z,9.02
2022-10-05T02:13:40.572Z,10.05
2022-10-05T02:14:49.856Z,10.50
2022-10-05T02:16:03.040Z,9.50
2022-10-05T02:17:15.213Z,10.15
2022-10-05T02:18:27.557Z,10.27
2022-10-05T02:19:39.179Z,10.90
2022-10-05T02:20:43.025Z,11.23
2022-10-05T02:21:50.752Z,8.80
2022-10-05T02:22:58.190Z,11.00
2022-10-05T02:24:08.110Z,9.60
2022-10-05T02:25:22.932Z,10.50
2022-10-05T02:26:26.455Z,10.73
2022-10-05T02:27:33.499Z,13.25
2022-10-05T02:28:42.732Z,11.57
2022-10-05T02:29:47.325Z,10.70
2022-10-05T02:30:59.107Z,10.65
2022-10-05T02:32:04.974Z,9.18
2022-10-05T02:33:27.829Z,10.73
2022-10-05T02:34:50.955Z,8.25
2022-10-05T02:35:53.351Z,9.63
2022-10-05T02:37:14.381Z,7.95
2022-10-05T02:38:39.350Z,11.82
2022-10-05T02:39:48.006Z,12.63
2022-10-05T02:41:14.449Z,11.02
2022-10-05T02:42:30.526Z,14.30
2022-10-05T02:44:07.155Z,9.30
2022-10-05T02:45:17.804Z,10.07
2022-10-05T02:46:34.369Z,9.73
2022-10-05T02:47:58.139Z,9.10
2022-10-05T02:49:14.921Z,9.32
2022-10-05T02:50:45.268Z,13.27
2022-10-05T02:52:25.457Z,10.32
2022-10-05T02:53:31.558Z,11.40
2022-10-05T02:55:01.038Z,10.15
2022-10-05T02:56:09.177Z,12.45
2022-10-05T02:57:35.657Z,11.07
2022-10-05T02:59:07.958Z,11.20
2022-10-05T03:00:15.278Z,8.32
2022-10-05T03:01:31.549Z,9.95
2022-10-05T03:02:39.878Z,14.40
2022-10-05T03:03:54.001Z,11.05
2022-10-05T03:05:22.037Z,11.10
2022-10-05T03:06:30.462Z,14.18
2022-10-05T03:07:46.466Z,12.23
2022-10-05T03:09:09.486Z,9.20
2022-10-05T03:10:14.208Z,7.93
2022-10-05T03:11:42.641Z,9.50
2022-10-05T03:12:50.556Z,15.05
2022-10-05T03:14:16.213Z,8.93
2022-10-05T03:15:49.041Z,11.65
2022-10-05T03:17:00.790Z,11.35
2022-10-05T03:18:30.983Z,9.38
2022-10-05T03:19:50.208Z,8.40
2022-10-05T03:21:19.629Z,10.88
2022-10-05T03:22:41.226Z,9.45
2022-10-05T03:24:24.703Z,7.85
2022-10-05T03:25:48.147Z,10.20
2022-10-05T03:27:23.420Z,9.70
2022-10-05T03:28:51.375Z,11.00
2022-10-05T03:30:18.202Z,8.70
2022-10-05T03:31:25.629Z,8.85
2022-10-05T03:32:46.539Z,11.77
2022-10-05T03:34:11.359Z,11.43
2022-10-05T03:36:02.208Z,10.60
2022-10-05T03:37:33.438Z,12.02
2022-10-05T03:38:36.349Z,10.30
2022-10-05T03:39:51.849Z,8.10
2022-10-05T03:41:02.391Z,10.63
2022-10-05T03:42:44.373Z,10.00
2022-10-05T03:44:15.972Z,10.45
2022-10-05T03:45:23.596Z,11.35
2022-10-05T03:46:39.792Z,9.25
2022-10-05T03:48:01.515Z,8.57
2022-10-05T03:49:47.115Z,10.45
2022-10-05T03:51:21.014Z,8.45
2022-10-05T03:52:29.977Z,8.60
2022-10-05T03:53:41.736Z,8.73
2022-10-05T03:54:54.815Z,8.48
2022-10-05T03:56:06.889Z,8.55
2022-10-05T03:57:14.833Z,11.85
2022-10-05T03:58:27.393Z,8.20
2022-10-05T03:59:47.299Z,10.57
2022-10-05T04:00:54.087Z,9.80
2022-10-05T04:02:01.773Z,9.05
2022-10-05T04:03:24.912Z,10.98
2022-10-05T04:04:40.887Z,10.10
2022-10-05T04:05:59.491Z,9.65
2022-10-05T04:07:02.207Z,13.02
2022-10-05T04:08:20.877Z,11.18
2022-10-05T04:09:39.233Z,10.32
2022-10-05T04:10:54.016Z,10.70
2022-10-05T04:12:09.726Z,10.88
2022-10-05T04:13:15.512Z,10.30
2022-10-05T04:14:25.644Z,11.35
2022-10-05T04:15:36.329Z,10.70
2022-10-05T04:16:59.674Z,9.65
2022-10-05T04:18:05.744Z,11.18
2022-10-05T04:19:22.444Z,10.35
2022-10-05T04:20:43.271Z,11.25
2022-10-05T04:21:51.509Z,10.05
2022-10-05T04:23:28.539Z,11.25
2022-10-05T04:25:01.572Z,9.15
2022-10-05T04:26:09.232Z,10.35
2022-10-05T04:27:24.325Z,8.27
2022-10-05T04:28:50.695Z,11.60
2022-10-05T04:30:25.173Z,11.32
2022-10-05T04:31:32.692Z,10.05
2022-10-05T04:32:37.146Z,10.63
2022-10-05T04:33:38.855Z,8.73
2022-10-05T04:35:22.100Z,9.05
2022-10-05T04:36:43.337Z,9.88
2022-10-05T04:37:54.257Z,9.30
2022-10-05T04:39:20.566Z,15.07
2022-10-05T04:40:41.607Z,9.57
2022-10-05T04:42:30.914Z,9.40
2022-10-05T04:43:57.863Z,9.50
2022-10-05T04:45:13.903Z,9.55
2022-10-05T04:46:18.953Z,10.95
2022-10-05T04:47:51.800Z,11.52
2022-10-05T04:49:01.747Z,9.30
2022-10-05T04:50:06.513Z,10.23
2022-10-05T04:51:19.372Z,8.43
2022-10-05T04:52:35.999Z,8.25
2022-10-05T04:53:42.724Z,10.43
2022-10-05T04:55:22.766Z,11.52
2022-10-05T04:56:38.558Z,9.27
2022-10-05T04:57:58.810Z,11.15
2022-10-05T04:59:18.197Z,12.50
2022-10-05T05:00:25.495Z,10.23
2022-10-05T05:01:36.224Z,8.70
2022-10-05T05:02:41.716Z,8.85
2022-10-05T05:04:16.753Z,9.00
2022-10-05T05:05:21.562Z,7.07
2022-10-05T05:06:32.560Z,8.65
2022-10-05T05:08:16.048Z,7.95
2022-10-05T05:09:46.391Z,10.80
2022-10-05T05:11:08.331Z,11.23
2022-10-05T05:12:46.575Z,9.75
2022-10-05T05:14:00.453Z,11.25
2022-10-05T05:15:11.467Z,9.90
2022-10-05T05:16:19.510Z,9.45
2022-10-05T05:17:34.905Z,11.32
2022-10-05T05:18:49.452Z,8.35
2022-10-05T05:20:09.605Z,12.82
2022-10-05T05:21:24.851Z,8.23
2022-10-05T05:23:07.147Z,11.23
2022-10-05T05:24:31.399Z,11.60
2022-10-05T05:25:46.680Z,11.93
2022-10-05T05:27:01.037Z,10.18
2022-10-05T05:28:29.019Z,13.18
2022-10-05T05:29:58.229Z,8.93
2022-10-05T05:31:24.749Z,10.65
2022-10-05T05:33:01.324Z,10.07
2022-10-05T05:34:37.671Z,9.25
2022-10-05T05:36:10.514Z,10.55
2022-10-05T05:37:41.646Z,10.65
2022-10-05T05:39:00.992Z,8.75
2022-10-05T05:40:10.155Z,11.07
2022-10-05T05:41:36.960Z,8.77
2022-10-05T05:43:14.016Z,9.45
2022-10-05T05:44:38.420Z,9.70
2022-10-05T05:45:54.443Z,10.82
2022-10-05T05:47:05.677Z,11.00
2022-10-05T05:48:26.118Z,9.13
2022-10-05T05:49:48.281Z,10.07
2022-10-05T05:50:58.450Z,7.70
2022-10-05T05:52:10.551Z,9.13
2022-10-05T05:53:24.393Z,9.93
2022-10-05T05:54:56.723Z,10.23
2022-10-05T05:56:15.215Z,9.45
2022-10-05T05:57:28.248Z,9.00
2022-10-05T05:58:38.631Z,10.30
2022-10-05T06:00:00.589Z,13.38
2022-10-05T06:01:32.127Z,9.85
2022-10-05T06:02:48.367Z,9.02
2022-10-05T06:03:57.939Z,10.73
2022-10-05T06:05:18.302Z,9.73
2022-10-05T06:06:26.806Z,8.75
2022-10-05T06:07:31.345Z,9.98
2022-10-05T06:08:41.112Z,7.85
2022-10-05T06:09:50.878Z,11.35
2022-10-05T06:11:23.062Z,10.73
2022-10-05T06:12:32.429Z,9.00
2022-10-05T06:13:37.699Z,9.30
2022-10-05T06:14:52.359Z,7.38
2022-10-05T06:16:05.432Z,9.07
2022-10-05T06:17:33.385Z,9.57
2022-10-05T06:18:39.381Z,10.25
2022-10-05T06:19:43.031Z,9.02
2022-10-05T06:20:54.861Z,9.32
2022-10-05T06:22:13.660Z,8.73
2022-10-05T06:23:48.995Z,8.27
2022-10-05T06:25:17.242Z,11.35
2022-10-05T06:26:39.991Z,10.85
2022-10-05T06:28:02.531Z,10.02
2022-10-05T06:29:10.521Z,8.45
2022-10-05T06:30:19.821Z,13.43
2022-10-05T06:31:46.770Z,10.07
2022-10-05T06:33:14.811Z,11.73
2022-10-05T06:34:18.140Z,9.00
2022-10-05T06:35:50.055Z,12.95
2022-10-05T06:37:00.449Z,8.18
2022-10-05T06:38:08.071Z,11.63
2022-10-05T06:39:29.007Z,12.07
2022-10-05T06:40:49.396Z,14.10
2022-10-05T06:42:13.742Z,10.10
2022-10-05T06:43:27.405Z,10.38
2022-10-05T06:44:49.832Z,9.93
2022-10-05T06:46:07.060Z,12.07
2022-10-05T06:47:35.048Z,14.77
2022-10-05T06:49:13.855Z,11.93
2022-10-05T06:50:23.007Z,9.38
2022-10-05T06:51:34.828Z,13.23
2022-10-05T06:52:55.963Z,11.88
2022-10-05T06:54:35.571Z,13.38
2022-10-05T06:56:22.614Z,11.88
2022-10-05T06:57:30.818Z,12.50
2022-10-05T06:58:58.204Z,11.55
2022-10-05T07:00:20.706Z,14.82
2022-10-05T07:01:37.683Z,10.77
2022-10-05T07:02:45.833Z,12.20
2022-10-05T07:04:17.675Z,10.82
2022-10-05T07:05:25.046Z,11.68
2022-10-05T07:06:33.617Z,9.43
2022-10-05T07:08:01.257Z,9.95
2022-10-05T07:09:15.801Z,11.65
2022-10-05T07:10:55.259Z,11.60
2022-10-05T07:12:34.962Z,9.95
2022-10-05T07:13:42.774Z,11.45
2022-10-05T07:14:56.372Z,11.32
2022-10-05T07:16:21.019Z,10.18
2022-10-05T07:17:49.279Z,8.70
2022-10-05T07:19:06.966Z,10.48
2022-10-05T07:20:08.674Z,12.18
2022-10-05T07:21:35.891Z,9.88
2022-10-05T07:22:43.350Z,10.23
2022-10-05T07:24:23.089Z,9.32
2022-10-05T07:25:51.641Z,10.88
2022-10-05T07:27:20.444Z,13.73
2022-10-05T07:28:44.173Z,9.07
2022-10-05T07:29:55.979Z,10.52
2022-10-05T07:31:21.495Z,8.57
2022-10-05T07:32:56.754Z,9.45
2022-10-05T07:34:17.483Z,8.27
2022-10-05T07:35:47.062Z,7.45
2022-10-05T07:37:32.695Z,10.02
2022-10-05T07:38:43.420Z,10.07
2022-10-05T07:40:01.698Z,8.27
2022-10-05T07:41:11.295Z,7.72
2022-10-05T07:42:33.201Z,7.82
2022-10-05T07:44:02.571Z,8.65
2022-10-05T07:45:24.978Z,7.45
2022-10-05T07:46:49.495Z,9.10
2022-10-05T07:47:56.048Z,9.48
2022-10-05T07:49:29.388Z,9.35
2022-10-05T07:50:35.098Z,7.22
2022-10-05T07:51:41.537Z,10.18
2022-10-05T07:52:54.064Z,10.05
2022-10-05T07:54:17.372Z,6.05
2022-10-05T07:55:31.717Z,6.28
2022-10-05T07:56:41.058Z,7.57
2022-10-05T07:58:13.209Z,7.20
2022-10-05T07:59:40.993Z,6.72
2022-10-05T08:01:08.357Z,8.93
2022-10-05T08:02:29.778Z,7.25
2022-10-05T08:03:54.035Z,9.20
2022-10-05T08:05:11.212Z,7.50
2022-10-05T08:06:31.025Z,7.22
2022-10-05T08:07:35.645Z,6.43
2022-10-05T08:09:01.299Z,9.05
2022-10-05T08:10:25.624Z,10.93
2022-10-05T08:11:29.558Z,8.73
2022-10-05T08:13:05.874Z,11.07
2022-10-05T08:14:22.722Z,9.48
2022-10-05T08:15:31.979Z,8.93
2022-10-05T08:16:38.576Z,7.45
2022-10-05T08:18:02.109Z,7.78
2022-10-05T08:19:31.236Z,7.85
2022-10-05T08:20:46.633Z,6.35
2022-10-05T08:21:55.923Z,9.23
2022-10-05T08:23:31.186Z,11.25
2022-10-05T08:24:53.744Z,8.25
2022-10-05T08:26:01.040Z,7.80
2022-10-05T08:27:15.200Z,7.78
2022-10-05T08:28:24.039Z,7.00
2022-10-05T08:29:41.013Z,10.90
2022-10-05T08:31:25.177Z,8.10
2022-10-05T08:32:54.026Z,9.73
2022-10-05T08:34:23.925Z,9.70
2022-10-05T08:35:41.095Z,8.77
2022-10-05T08:37:07.409Z,7.95
2022-10-05T08:38:19.420Z,7.85
2022-10-05T08:39:24.396Z,8.88
2022-10-05T08:40:39.706Z,7.65
2022-10-05T08:42:13.449Z,8.55
2022-10-05T08:43:26.087Z,8.77
2022-10-05T08:44:58.540Z,8.30
2022-10-05T08:46:14.734Z,10.50
2022-10-05T08:47:28.287Z,10.32
2022-10-05T08:48:50.914Z,10.00
2022-10-05T08:49:57.147Z,8.63
2022-10-05T08:51:07.871Z,9.10
2022-10-05T08:52:32.895Z,8.38
2022-10-05T08:54:07.125Z,10.02
2022-10-05T08:55:08.958Z,9.60
2022-10-05T08:56:44.890Z,8.77
2022-10-05T08:58:08.555Z,7.45
2022-10-05T08:59:42.403Z,9.25
2022-10-05T09:01:07.506Z,8.13
2022-10-05T09:02:18.853Z,7.85
2022-10-05T09:03:41.834Z,6.50
2022-10-05T09:04:46.291Z,5.72
2022-10-05T09:06:15.360Z,7.78
2022-10-05T09:07:42.021Z,8.20
2022-10-05T09:08:55.425Z,7.07
2022-10-05T09:10:10.080Z,7.95
2022-10-05T09:11:22.759Z,9.85
2022-10-05T09:13:01.317Z,8.75
2022-10-05T09:14:40.669Z,7.57
2022-10-05T09:16:01.540Z,9.48
2022-10-05T09:17:39.437Z,6.82
2022-10-05T09:18:50.823Z,6.00
2022-10-05T09:20:00.217Z,9.63
2022-10-05T09:21:44.901Z,9.25
2022-10-05T09:23:15.218Z,7.88
2022-10-05T09:24:24.333Z,9.98
2022-10-05T09:26:08.264Z,6.68
2022-10-05T09:27:16.027Z,6.80
2022-10-05T09:28:38.804Z,6.18
2022-10-05T09:30:01.819Z,6.00
2022-10-05T09:31:21.774Z,5.80
2022-10-05T09:32:44.850Z,6.88
2022-10-05T09:34:12.463Z,6.93
2022-10-05T09:35:33.218Z,6.50
2022-10-05T09:37:03.191Z,6.75
2022-10-05T09:38:08.668Z,7.15
2022-10-05T09:39:47.076Z,7.45
2022-10-05T09:41:07.659Z,5.85
2022-10-05T09:43:06.068Z,7.22
2022-10-05T09:44:27.874Z,5.50
2022-10-05T09:46:04.440Z,6.95
2022-10-05T09:47:30.832Z,5.72
2022-10-05T09:48:54.146Z,6.97
2022-10-05T09:50:37.837Z,7.68
2022-10-05T09:52:09.357Z,8.93
2022-10-05T09:53:29.500Z,5.78
2022-10-05T09:54:47.243Z,6.43
2022-10-05T09:56:30.493Z,6.85
2022-10-05T09:57:42.328Z,11.10
2022-10-05T09:58:55.476Z,9.25
2022-10-05T10:00:36.096Z,8.93
2022-10-05T10:02:04.580Z,6.45
2022-10-05T10:03:43.785Z,10.02
2022-10-05T10:05:20.823Z,8.80
2022-10-05T10:06:46.562Z,8.00
2022-10-05T10:07:55.560Z,9.23
2022-10-05T10:09:03.038Z,7.90
2022-10-05T10:10:31.573Z,6.25
2022-10-05T10:11:54.141Z,8.05
2022-10-05T10:13:19.846Z,7.70
2022-10-05T10:14:49.645Z,7.72
2022-10-05T10:16:15.323Z,7.47
2022-10-05T10:17:28.910Z,6.65
2022-10-05T10:18:41.420Z,7.25
2022-10-05T10:20:02.939Z,8.25
2022-10-05T10:21:15.655Z,7.57
2022-10-05T10:22:56.372Z,6.03
2022-10-05T10:24:16.567Z,8.05
2022-10-05T10:25:24.386Z,6.50
2022-10-05T10:27:02.862Z,6.80
2022-10-05T10:28:19.822Z,6.20
2022-10-05T10:29:36.149Z,7.60
2022-10-05T10:31:02.809Z,6.63
2022-10-05T10:32:21.341Z,7.15
2022-10-05T10:33:35.791Z,6.18
2022-10-05T10:35:20.434Z,5.68
2022-10-05T10:36:37.575Z,5.50
2022-10-05T10:38:00.541Z,5.45
2022-10-05T10:39:38.082Z,7.93
2022-10-05T10:40:55.053Z,4.97
2022-10-05T10:42:08.520Z,5.25
2022-10-05T10:43:41.385Z,5.65
2022-10-05T10:45:01.317Z,5.40
2022-10-05T10:46:12.082Z,5.90
2022-10-05T10:47:31.037Z,5.45
2022-10-05T10:48:41.103Z,6.53
2022-10-05T10:50:07.438Z,5.78
2022-10-05T10:51:40.319Z,5.80
2022-10-05T10:53:15.828Z,4.45
2022-10-05T10:54:47.809Z,5.88
2022-10-05T10:56:04.181Z,5.57
2022-10-05T10:57:25.443Z,5.38
2022-10-05T10:59:12.824Z,6.28
2022-10-05T11:00:47.228Z,5.95
2022-10-05T11:02:10.549Z,6.32
2022-10-05T11:03:31.915Z,6.35
2022-10-05T11:05:03.648Z,6.13
2022-10-05T11:06:10.717Z,6.90
2022-10-05T11:07:15.277Z,6.50
2022-10-05T11:08:35.513Z,5.95
2022-10-05T11:09:39.718Z,6.47
2022-10-05T11:11:19.139Z,7.15
2022-10-05T11:12:30.883Z,5.72
2022-10-05T11:14:04.044Z,6.95
2022-10-05T11:15:33.528Z,7.38
2022-10-05T11:16:44.664Z,7.07
2022-10-05T11:18:27.676Z,6.60
2022-10-05T11:20:10.519Z,8.48
2022-10-05T11:21:37.375Z,6.28
2022-10-05T11:22:54.026Z,6.25
2022-10-05T11:24:26.310Z,5.65
2022-10-05T11:25:31.345Z,6.45
2022-10-05T11:27:07.549Z,5.78
2022-10-05T11:28:18.177Z,5.45
2022-10-05T11:29:41.559Z,6.95
2022-10-05T11:31:01.831Z,5.97
2022-10-05T11:32:14.099Z,6.45
2022-10-05T11:33:42.839Z,6.78
2022-10-05T11:34:51.544Z,7.53
2022-10-05T11:35:59.308Z,5.95
2022-10-05T11:37:29.173Z,5.70
2022-10-05T11:39:02.166Z,7.40
2022-10-05T11:40:36.095Z,6.25
2022-10-05T11:41:50.114Z,5.60
2022-10-05T11:43:00.441Z,6.55
2022-10-05T11:44:27.188Z,5.70
2022-10-05T11:45:55.004Z,5.72
2022-10-05T11:47:08.733Z,5.60
2022-10-05T11:48:13.268Z,5.55
2022-10-05T11:49:32.750Z,7.22
2022-10-05T11:51:09.602Z,4.13
2022-10-05T11:52:13.748Z,5.47
2022-10-05T11:53:26.521Z,4.97
2022-10-05T11:55:12.193Z,6.32
2022-10-05T11:56:21.987Z,5.25
2022-10-05T11:57:28.958Z,5.25
2022-10-05T11:58:51.643Z,5.90
2022-10-05T12:00:02.206Z,6.20
2022-10-05T12:01:15.481Z,4.82
2022-10-05T12:02:47.778Z,5.10
2022-10-05T12:04:12.768Z,4.88
2022-10-05T12:05:41.277Z,4.93
2022-10-05T12:07:08.841Z,5.63
2022-10-05T12:08:36.088Z,5.45
2022-10-05T12:10:14.382Z,4.47
2022-10-05T12:11:49.125Z,3.85
2022-10-05T12:13:15.101Z,5.07
2022-10-05T12:14:48.392Z,5.70
2022-10-05T12:16:06.595Z,5.95
2022-10-05T12:17:24.041Z,5.47
2022-10-05T12:18:32.826Z,6.57
2022-10-05T12:19:38.843Z,5.30
2022-10-05T12:20:51.883Z,5.43
2022-10-05T12:22:04.071Z,5.20
2022-10-05T12:23:46.789Z,5.05
2022-10-05T12:25:02.974Z,5.47
2022-10-05T12:26:11.200Z,6.85
2022-10-05T12:27:22.792Z,6.05
2022-10-05T12:28:37.433Z,6.45
2022-10-05T12:29:57.736Z,5.70
2022-10-05T12:31:11.781Z,6.03
2022-10-05T12:32:34.323Z,7.00
2022-10-05T12:34:04.172Z,6.25
2022-10-05T12:35:12.055Z,4.70
2022-10-05T12:37:06.461Z,4.85
2022-10-05T12:38:19.909Z,4.97
2022-10-05T12:39:50.708Z,6.57
2022-10-05T12:41:01.068Z,6.05
2022-10-05T12:42:11.349Z,4.85
2022-10-05T12:43:43.619Z,6.13
2022-10-05T12:45:01.517Z,4.38
2022-10-05T12:46:24.355Z,5.90
2022-10-05T12:47:40.861Z,5.53
2022-10-05T12:48:57.992Z,4.97
2022-10-05T12:50:14.448Z,5.18
2022-10-05T12:51:25.410Z,4.60
2022-10-05T12:52:32.133Z,5.05
2022-10-05T12:53:40.812Z,5.15
2022-10-05T12:55:02.608Z,5.07
2022-10-05T12:56:08.723Z,5.57
2022-10-05T12:57:25.254Z,6.05
2022-10-05T12:58:47.862Z,4.68
2022-10-05T12:59:58.735Z,5.95
2022-10-05T13:01:21.956Z,5.10
2022-10-05T13:02:42.426Z,7.53
2022-10-05T13:03:57.098Z,5.25
2022-10-05T13:05:10.818Z,7.65
2022-10-05T13:06:41.902Z,5.80
2022-10-05T13:08:13.499Z,7.75
2022-10-05T13:09:28.665Z,7.32
2022-10-05T13:10:39.356Z,5.53
2022-10-05T13:12:08.201Z,5.18
2022-10-05T13:13:25.588Z,5.85
2022-10-05T13:14:42.749Z,5.70
2022-10-05T13:15:54.806Z,5.63
2022-10-05T13:17:20.853Z,4.88
2022-10-05T13:18:51.725Z,5.85
2022-10-05T13:19:59.383Z,6.65
2022-10-05T13:21:07.156Z,5.25
2022-10-05T13:22:33.631Z,6.38
2022-10-05T13:23:57.525Z,5.75
2022-10-05T13:25:20.925Z,5.18
2022-10-05T13:27:05.466Z,5.90
2022-10-05T13:28:16.795Z,7.35
2022-10-05T13:29:33.246Z,7.38
2022-10-05T13:30:36.732Z,5.60
2022-10-05T13:31:54.506Z,6.35
2022-10-05T13:32:58.521Z,5.63
2022-10-05T13:34:27.953Z,6.53
2022-10-05T13:35:44.614Z,5.75
2022-10-05T13:37:11.725Z,5.95
2022-10-05T13:38:28.141Z,8.02
2022-10-05T13:40:07.387Z,6.15
2022-10-05T13:41:26.267Z,6.53
2022-10-05T13:42:39.642Z,5.68
2022-10-05T13:43:55.444Z,5.20
2022-10-05T13:45:10.182Z,4.25
2022-10-05T13:46:36.941Z,6.28
2022-10-05T13:47:56.809Z,4.47
2022-10-05T13:49:26.563Z,5.85
2022-10-05T13:50:33.551Z,5.10
2022-10-05T13:51:53.863Z,4.07
2022-10-05T13:52:58.227Z,5.50
2022-10-05T13:54:10.751Z,5.00
2022-10-05T13:55:47.419Z,4.72
2022-10-05T13:56:54.463Z,4.85
2022-10-05T13:58:05.895Z,5.28
2022-10-05T13:59:30.464Z,3.45
2022-10-05T14:00:40.959Z,4.88
2022-10-05T14:01:59.161Z,4.65
2022-10-05T14:03:01.929Z,4.63
2022-10-05T14:04:27.341Z,4.93
2022-10-05T14:05:34.056Z,5.60
2022-10-05T14:06:37.943Z,4.18
2022-10-05T14:07:51.393Z,3.60
2022-10-05T14:08:53.385Z,4.47
2022-10-05T14:09:55.318Z,3.67
2022-10-05T14:11:00.698Z,4.72
2022-10-05T14:12:05.383Z,4.32
2022-10-05T14:13:19.442Z,5.53
2022-10-05T14:14:30.686Z,4.90
2022-10-05T14:15:41.961Z,4.35
2022-10-05T14:16:51.481Z,4.88
2022-10-05T14:17:53.194Z,3.83
2022-10-05T14:19:09.158Z,6.10
2022-10-05T14:20:31.602Z,3.60
2022-10-05T14:22:03.066Z,4.18
2022-10-05T14:23:24.365Z,6.35
2022-10-05T14:24:44.510Z,7.32
2022-10-05T14:25:55.629Z,7.82
2022-10-05T14:26:59.388Z,6.60
2022-10-05T14:28:26.068Z,5.40
2022-10-05T14:29:37.374Z,5.45
2022-10-05T14:30:40.176Z,5.78
2022-10-05T14:32:15.677Z,5.50
2022-10-05T14:33:17.420Z,4.30
2022-10-05T14:34:44.965Z,4.72
2022-10-05T14:35:50.307Z,4.00
2022-10-05T14:36:57.930Z,5.00
2022-10-05T14:38:02.735Z,4.00
2022-10-05T14:39:11.693Z,6.53
2022-10-05T14:40:31.535Z,6.20
2022-10-05T14:41:37.683Z,4.15
2022-10-05T14:42:47.090Z,4.15
2022-10-05T14:43:50.968Z,4.22
2022-10-05T14:45:14.828Z,5.20
2022-10-05T14:46:16.768Z,5.30
2022-10-05T14:47:22.749Z,3.92
2022-10-05T14:48:29.151Z,4.22
2022-10-05T14:49:36.078Z,5.63
2022-10-05T14:50:59.455Z,4.18
2022-10-05T14:52:26.884Z,4.40
2022-10-05T14:53:44.491Z,5.15
2022-10-05T14:54:59.365Z,5.97
2022-10-05T14:56:17.100Z,5.60
2022-10-05T14:57:52.297Z,5.78
2022-10-05T14:59:14.072Z,5.68
2022-10-05T15:00:17.798Z,4.07
2022-10-05T15:01:33.957Z,4.80
2022-10-05T15:03:17.979Z,5.18
2022-10-05T15:04:44.685Z,4.78
2022-10-05T15:05:58.875Z,5.88
2022-10-05T15:07:13.187Z,3.88
2022-10-05T15:08:41.443Z,4.78
2022-10-05T15:10:22.527Z,5.15
2022-10-05T15:11:51.417Z,4.90
2022-10-05T15:12:58.231Z,5.30
2022-10-05T15:14:01.323Z,5.53
2022-10-05T15:15:34.197Z,6.22
2022-10-05T15:16:39.101Z,6.70
2022-10-05T15:17:52.482Z,7.13
2022-10-05T15:19:17.905Z,5.57
2022-10-05T15:20:43.774Z,6.10
2022-10-05T15:21:55.200Z,5.88
2022-10-05T15:23:11.172Z,5.75
2022-10-05T15:24:20.348Z,5.55
2022-10-05T15:25:40.400Z,3.95
2022-10-05T15:26:51.509Z,5.13
2022-10-05T15:28:01.805Z,5.25
2022-10-05T15:29:14.708Z,5.80
2022-10-05T15:30:18.276Z,5.80
2022-10-05T15:31:25.731Z,4.72
2022-10-05T15:33:05.363Z,5.53
2022-10-05T15:34:26.985Z,5.43
2022-10-05T15:35:37.607Z,4.93
2022-10-05T15:36:49.414Z,5.10
2022-10-05T15:37:59.737Z,5.28
2022-10-05T15:39:04.454Z,5.20
2022-10-05T15:40:30.545Z,5.72
2022-10-05T15:42:02.034Z,4.10
2022-10-05T15:43:13.966Z,5.68
2022-10-05T15:44:46.403Z,4.75
2022-10-05T15:46:03.587Z,6.10
2022-10-05T15:47:09.008Z,5.38
2022-10-05T15:48:32.176Z,5.15
2022-10-05T15:49:46.656Z,4.50
2022-10-05T15:50:56.963Z,7.22
2022-10-05T15:52:28.096Z,5.35
2022-10-05T15:54:24.407Z,5.72
2022-10-05T15:55:29.134Z,4.40
2022-10-05T15:56:38.412Z,5.85
2022-10-05T15:58:08.308Z,6.25
2022-10-05T15:59:32.499Z,5.75
2022-10-05T16:00:47.513Z,4.88
2022-10-05T16:02:00.811Z,6.22
2022-10-05T16:03:26.142Z,5.70
2022-10-05T16:04:45.469Z,5.57
2022-10-05T16:06:08.237Z,4.45
2022-10-05T16:07:48.871Z,5.53
2022-10-05T16:09:21.440Z,5.80
2022-10-05T16:10:25.056Z,5.15
2022-10-05T16:11:29.442Z,5.70
2022-10-05T16:12:46.668Z,5.18
2022-10-05T16:14:14.061Z,5.60
2022-10-05T16:15:29.192Z,6.70
2022-10-05T16:16:39.614Z,5.50
2022-10-05T16:17:59.297Z,5.47
2022-10-05T16:19:13.773Z,5.57
2022-10-05T16:20:36.498Z,6.18
2022-10-05T16:22:11.069Z,6.53
2022-10-05T16:23:40.048Z,5.63
2022-10-05T16:25:00.458Z,5.43
2022-10-05T16:26:30.418Z,5.60
2022-10-05T16:27:50.635Z,4.95
2022-10-05T16:29:07.816Z,5.03
2022-10-05T16:30:18.264Z,6.93
2022-10-05T16:31:54.372Z,5.95
2022-10-05T16:33:10.358Z,4.95
2022-10-05T16:34:20.695Z,7.07
2022-10-05T16:35:44.360Z,5.57
2022-10-05T16:37:24.035Z,5.20
2022-10-05T16:38:55.060Z,5.82
2022-10-05T16:40:06.169Z,6.57
2022-10-05T16:41:31.484Z,6.13
2022-10-05T16:42:46.459Z,4.80
2022-10-05T16:44:14.162Z,4.15
2022-10-05T16:45:52.137Z,5.35
2022-10-05T16:47:05.927Z,4.43
2022-10-05T16:48:42.805Z,5.53
2022-10-05T16:49:55.751Z,5.82
2022-10-05T16:50:57.377Z,5.65
2022-10-05T16:52:07.087Z,5.88
2022-10-05T16:53:18.947Z,5.60
2022-10-05T16:54:25.674Z,6.03
2022-10-05T16:55:38.163Z,5.50
2022-10-05T16:56:57.451Z,5.07
2022-10-05T16:58:01.932Z,6.38
2022-10-05T16:59:28.688Z,5.43
2022-10-05T17:00:51.961Z,6.45
2022-10-05T17:01:53.660Z,6.15
2022-10-05T17:03:16.602Z,6.78
2022-10-05T17:04:24.298Z,7.47
2022-10-05T17:05:47.453Z,7.90
2022-10-05T17:06:54.046Z,4.63
2022-10-05T17:08:21.508Z,6.80
2022-10-05T17:09:41.362Z,5.95
2022-10-05T17:10:51.900Z,6.38
2022-10-05T17:12:26.912Z,6.90
2022-10-05T17:14:00.923Z,5.93
2022-10-05T17:15:20.444Z,6.90
2022-10-05T17:16:43.814Z,5.63
2022-10-05T17:18:17.081Z,6.07
2022-10-05T17:19:45.751Z,6.32
2022-10-05T17:20:53.008Z,7.82
2022-10-05T17:22:00.898Z,5.38